createdAt,value
2016-09-20T00:00:20.766Z,0
2016-09-20T00:01:20.770Z,0
2016-09-20T00:02:20.710Z,0
2016-09-20T00:03:20.721Z,0
2016-09-20T00:04:20.801Z,0
2016-09-20T00:05:20.755Z,0
2016-09-20T00:06:20.864Z,0
2016-09-20T00:07:20.773Z,0
2016-09-20T00:08:20.730Z,0
2016-09-20T00:09:20.739Z,0
2016-09-20T00:10:20.734Z,0
2016-09-20T00:11:20.771Z,0
2016-09-20T00:12:20.773Z,0
2016-09-20T00:13:20.753Z,0
2016-09-20T00:14:20.833Z,0
2016-09-20T00:15:20.825Z,0
2016-09-20T00:16:20.818Z,0
2016-09-20T00:17:20.748Z,0
2016-09-20T00:18:20.760Z,0
2016-09-20T00:19:20.786Z,0
2016-09-20T00:20:20.787Z,0
2016-09-20T00:21:20.732Z,0
2016-09-20T00:22:20.796Z,0
2016-09-20T00:23:20.718Z,0
2016-09-20T00:24:20.722Z,0
2016-09-20T00:25:20.760Z,0
2016-09-20T00:26:20.748Z,0
2016-09-20T00:27:20.757Z,0
2016-09-20T00:28:20.731Z,0
2016-09-20T00:29:20.731Z,0
2016-09-20T00:30:20.723Z,0
2016-09-20T00:31:20.766Z,0
2016-09-20T00:32:20.795Z,0
2016-09-20T00:33:20.803Z,0
2016-09-20T00:34:20.744Z,0
2016-09-20T00:35:20.748Z,0
2016-09-20T00:36:20.756Z,0
2016-09-20T00:37:20.808Z,0
2016-09-20T00:38:20.771Z,0
2016-09-20T00:39:20.778Z,0
2016-09-20T00:40:20.771Z,0
2016-09-20T00:41:20.763Z,0
2016-09-20T00:42:20.779Z,0
2016-09-20T00:43:20.802Z,0
2016-09-20T00:44:20.792Z,0
2016-09-20T00:45:20.760Z,0
2016-09-20T00:46:20.747Z,0
2016-09-20T00:47:20.817Z,0
2016-09-20T00:48:20.776Z,0
2016-09-20T00:49:20.824Z,0
2016-09-20T00:50:20.773Z,0
2016-09-20T00:51:20.771Z,0
2016-09-20T00:52:20.760Z,0
2016-09-20T00:53:20.764Z,0
2016-09-20T00:54:20.773Z,0
2016-09-20T00:55:20.785Z,0
2016-09-20T00:56:20.789Z,0
2016-09-20T00:57:20.805Z,0
2016-09-20T00:58:20.813Z,0
2016-09-20T00:59:20.795Z,0
2016-09-20T01:00:20.791Z,0
2016-09-20T01:01:20.819Z,0
2016-09-20T01:02:20.800Z,0
2016-09-20T01:03:20.777Z,0
2016-09-20T01:04:20.779Z,0
2016-09-20T01:05:20.817Z,0
2016-09-20T01:06:20.830Z,0
2016-09-20T01:07:20.830Z,0
2016-09-20T01:08:20.815Z,0
2016-09-20T01:09:20.785Z,0
2016-09-20T01:10:20.817Z,0
2016-09-20T01:11:20.811Z,0
2016-09-20T01:12:20.778Z,0
2016-09-20T01:13:20.843Z,0
2016-09-20T01:14:20.849Z,0
2016-09-20T01:15:20.836Z,0
2016-09-20T01:16:20.851Z,0
2016-09-20T01:17:20.808Z,0
2016-09-20T01:18:20.786Z,0
2016-09-20T01:19:20.821Z,0
2016-09-20T01:20:20.798Z,0
2016-09-20T01:21:20.785Z,0
2016-09-20T01:22:20.812Z,0
2016-09-20T01:23:20.792Z,0
2016-09-20T01:24:20.780Z,0
2016-09-20T01:25:20.814Z,0
2016-09-20T01:26:20.820Z,0
2016-09-20T01:27:20.875Z,0
2016-09-20T01:28:20.793Z,0
2016-09-20T01:29:20.811Z,0
2016-09-20T01:30:20.814Z,0
2016-09-20T01:31:20.806Z,0
2016-09-20T01:32:20.812Z,0
2016-09-20T01:33:20.837Z,0
2016-09-20T01:34:20.861Z,0
2016-09-20T01:35:20.833Z,0
2016-09-20T01:36:20.817Z,0
2016-09-20T01:37:20.796Z,0
2016-09-20T01:38:20.821Z,0
2016-09-20T01:39:20.801Z,0
2016-09-20T01:40:20.782Z,0
2016-09-20T01:41:20.811Z,0
2016-09-20T01:42:20.838Z,0
2016-09-20T01:43:20.798Z,0
2016-09-20T01:44:20.789Z,0
2016-09-20T01:45:20.808Z,0
2016-09-20T01:46:20.817Z,0
2016-09-20T01:47:20.792Z,0
2016-09-20T01:48:20.814Z,0
2016-09-20T01:49:20.809Z,0
2016-09-20T01:50:20.813Z,0
2016-09-20T01:51:20.806Z,0
2016-09-20T01:52:20.842Z,0
2016-09-20T01:53:20.844Z,0
2016-09-20T01:54:20.829Z,0
2016-09-20T01:55:20.863Z,0
2016-09-20T01:56:20.841Z,0
2016-09-20T01:57:20.875Z,0
2016-09-20T01:58:20.808Z,0
2016-09-20T01:59:20.830Z,0
2016-09-20T02:00:20.827Z,0
2016-09-20T02:01:20.833Z,0
2016-09-20T02:02:20.827Z,0
2016-09-20T02:03:20.855Z,0
2016-09-20T02:04:20.837Z,0
2016-09-20T02:05:20.838Z,0
2016-09-20T02:06:20.924Z,0
2016-09-20T02:07:20.830Z,0
2016-09-20T02:08:20.801Z,0
2016-09-20T02:09:20.873Z,0
2016-09-20T02:10:20.881Z,0
2016-09-20T02:11:20.849Z,0
2016-09-20T02:12:20.843Z,0
2016-09-20T02:13:20.817Z,0
2016-09-20T02:14:20.843Z,0
2016-09-20T02:15:20.898Z,0
2016-09-20T02:16:20.839Z,0
2016-09-20T02:17:20.862Z,0
2016-09-20T02:18:20.830Z,0
2016-09-20T02:19:20.801Z,0
2016-09-20T02:20:20.837Z,0
2016-09-20T02:21:20.843Z,0
2016-09-20T02:22:20.917Z,0
2016-09-20T02:23:20.840Z,0
2016-09-20T02:24:20.833Z,0
2016-09-20T02:25:20.834Z,0
2016-09-20T02:26:20.834Z,0
2016-09-20T02:27:20.824Z,0
2016-09-20T02:28:20.863Z,0
2016-09-20T02:29:20.850Z,0
2016-09-20T02:30:20.849Z,0
2016-09-20T02:31:20.849Z,0
2016-09-20T02:32:20.873Z,0
2016-09-20T02:33:20.854Z,0
2016-09-20T02:34:20.857Z,0
2016-09-20T02:35:20.894Z,0
2016-09-20T02:36:20.872Z,0
2016-09-20T02:37:20.863Z,0
2016-09-20T02:38:20.869Z,0
2016-09-20T02:39:20.865Z,0
2016-09-20T02:40:20.843Z,0
2016-09-20T02:41:20.888Z,0
2016-09-20T02:42:20.877Z,0
2016-09-20T02:43:20.859Z,0
2016-09-20T02:44:20.900Z,0
2016-09-20T02:45:20.879Z,0
2016-09-20T02:46:20.897Z,0
2016-09-20T02:47:20.893Z,0
2016-09-20T02:48:20.875Z,0
2016-09-20T02:49:20.856Z,0
2016-09-20T02:50:20.962Z,0
2016-09-20T02:51:20.911Z,0
2016-09-20T02:52:20.906Z,0
2016-09-20T02:53:20.921Z,0
2016-09-20T02:54:20.849Z,0
2016-09-20T02:55:20.884Z,0
2016-09-20T02:56:20.892Z,0
2016-09-20T02:57:20.871Z,0
2016-09-20T02:58:20.909Z,0
2016-09-20T02:59:20.857Z,0
2016-09-20T03:00:20.870Z,0
2016-09-20T03:01:20.856Z,0
2016-09-20T03:02:20.869Z,0
2016-09-20T03:03:20.877Z,0
2016-09-20T03:04:20.926Z,0
2016-09-20T03:05:20.904Z,0
2016-09-20T03:06:20.923Z,0
2016-09-20T03:07:20.920Z,0
2016-09-20T03:08:20.927Z,0
2016-09-20T03:09:20.913Z,0
2016-09-20T03:10:20.942Z,0
2016-09-20T03:11:20.934Z,0
2016-09-20T03:12:20.939Z,0
2016-09-20T03:13:20.936Z,0
2016-09-20T03:14:20.986Z,0
2016-09-20T03:15:20.937Z,0
2016-09-20T03:16:20.948Z,0
2016-09-20T03:17:20.951Z,0
2016-09-20T03:18:20.929Z,0
2016-09-20T03:19:20.913Z,0
2016-09-20T03:20:20.886Z,0
2016-09-20T03:21:20.914Z,0
2016-09-20T03:22:20.898Z,0
2016-09-20T03:23:20.974Z,0
2016-09-20T03:24:20.948Z,0
2016-09-20T03:25:20.961Z,0
2016-09-20T03:26:20.908Z,0
2016-09-20T03:27:20.921Z,0
2016-09-20T03:28:20.961Z,0
2016-09-20T03:29:20.989Z,0
2016-09-20T03:30:20.944Z,0
2016-09-20T03:31:20.920Z,0
2016-09-20T03:32:20.954Z,0
2016-09-20T03:33:20.950Z,0
2016-09-20T03:34:20.910Z,0
2016-09-20T03:35:20.915Z,0
2016-09-20T03:36:20.896Z,0
2016-09-20T03:37:20.872Z,0
2016-09-20T03:38:20.938Z,0
2016-09-20T03:39:20.926Z,0
2016-09-20T03:40:20.931Z,0
2016-09-20T03:41:20.929Z,0
2016-09-20T03:42:20.920Z,0
2016-09-20T03:43:20.927Z,0
2016-09-20T03:44:20.904Z,0
2016-09-20T03:45:20.937Z,0
2016-09-20T03:46:20.922Z,0
2016-09-20T03:47:20.936Z,0
2016-09-20T03:48:20.925Z,0
2016-09-20T03:49:20.918Z,0
2016-09-20T03:50:20.894Z,0
2016-09-20T03:51:20.953Z,0
2016-09-20T03:52:20.906Z,0
2016-09-20T03:53:20.930Z,0
2016-09-20T03:54:20.912Z,0
2016-09-20T03:55:20.927Z,0
2016-09-20T03:56:20.933Z,0
2016-09-20T03:57:20.925Z,0
2016-09-20T03:58:20.956Z,0
2016-09-20T03:59:20.939Z,0
2016-09-20T04:00:20.966Z,0
2016-09-20T04:01:20.923Z,0
2016-09-20T04:02:20.909Z,0
2016-09-20T04:03:21.003Z,0
2016-09-20T04:04:20.917Z,0
2016-09-20T04:05:21.640Z,0
2016-09-20T04:06:20.946Z,0
2016-09-20T04:07:20.968Z,0
2016-09-20T04:08:20.956Z,0
2016-09-20T04:09:20.937Z,0
2016-09-20T04:10:20.930Z,0
2016-09-20T04:11:20.930Z,0
2016-09-20T04:12:20.936Z,0
2016-09-20T04:13:20.948Z,0
2016-09-20T04:14:20.918Z,0
2016-09-20T04:15:20.912Z,0
2016-09-20T04:16:20.926Z,0
2016-09-20T04:17:20.938Z,0
2016-09-20T04:18:20.971Z,0
2016-09-20T04:19:20.941Z,0
2016-09-20T04:20:21.023Z,0
2016-09-20T04:21:21.231Z,0
2016-09-20T04:22:20.967Z,0
2016-09-20T04:23:20.935Z,0
2016-09-20T04:24:20.999Z,0
2016-09-20T04:25:21.011Z,0
2016-09-20T04:26:20.970Z,0
2016-09-20T04:27:20.968Z,0
2016-09-20T04:28:20.954Z,0
2016-09-20T04:29:20.946Z,0
2016-09-20T04:30:20.948Z,0
2016-09-20T04:31:20.957Z,0
2016-09-20T04:32:20.994Z,0
2016-09-20T04:33:20.968Z,0
2016-09-20T04:34:21.607Z,0
2016-09-20T04:35:20.946Z,0
2016-09-20T04:36:20.930Z,0
2016-09-20T04:37:20.993Z,0
2016-09-20T04:38:20.977Z,0
2016-09-20T04:39:20.962Z,0
2016-09-20T04:40:21.029Z,0
2016-09-20T04:41:20.969Z,0
2016-09-20T04:42:20.952Z,0
2016-09-20T04:43:20.990Z,0
2016-09-20T04:44:20.998Z,0
2016-09-20T04:45:20.981Z,0
2016-09-20T04:46:20.996Z,0
2016-09-20T04:47:20.966Z,0
2016-09-20T04:48:20.991Z,0
2016-09-20T04:49:20.993Z,0
2016-09-20T04:50:20.973Z,0
2016-09-20T04:51:20.974Z,0
2016-09-20T04:52:20.974Z,0
2016-09-20T04:53:20.996Z,0
2016-09-20T04:54:20.987Z,0
2016-09-20T04:55:21.004Z,0
2016-09-20T04:56:21.351Z,0
2016-09-20T04:57:20.990Z,0
2016-09-20T04:58:21.142Z,0
2016-09-20T04:59:21.256Z,0
2016-09-20T05:00:20.971Z,0
2016-09-20T05:01:21.092Z,0
2016-09-20T05:02:20.983Z,0
2016-09-20T05:03:20.976Z,0
2016-09-20T05:04:21.078Z,0
2016-09-20T05:05:21.016Z,0
2016-09-20T05:06:21.038Z,0
2016-09-20T05:07:20.967Z,0
2016-09-20T05:08:21.295Z,0
2016-09-20T05:09:20.974Z,0
2016-09-20T05:10:21.099Z,0
2016-09-20T05:11:21.125Z,0
2016-09-20T05:12:21.079Z,0
2016-09-20T05:13:21.070Z,0
2016-09-20T05:14:21.035Z,0
2016-09-20T05:15:21.154Z,5
2016-09-20T05:16:21.077Z,5
2016-09-20T05:17:21.019Z,5
2016-09-20T05:18:21.138Z,5
2016-09-20T05:19:21.170Z,5
2016-09-20T05:20:20.991Z,5
2016-09-20T05:21:21.208Z,5
2016-09-20T05:22:21.070Z,5
2016-09-20T05:23:21.032Z,5
2016-09-20T05:24:21.330Z,5
2016-09-20T05:25:21.090Z,10
2016-09-20T05:26:21.041Z,10
2016-09-20T05:27:21.032Z,10
2016-09-20T05:28:21.189Z,10
2016-09-20T05:29:21.014Z,10
2016-09-20T05:30:21.009Z,10
2016-09-20T05:31:21.044Z,10
2016-09-20T05:32:21.225Z,10
2016-09-20T05:33:21.058Z,10
2016-09-20T05:34:21.032Z,10
2016-09-20T05:35:21.004Z,10
2016-09-20T05:36:21.105Z,10
2016-09-20T05:37:21.122Z,10
2016-09-20T05:38:21.045Z,10
2016-09-20T05:39:21.182Z,10
2016-09-20T05:40:21.052Z,10
2016-09-20T05:41:21.266Z,10
2016-09-20T05:42:21.031Z,15
2016-09-20T05:43:21.021Z,15
2016-09-20T05:44:21.174Z,15
2016-09-20T05:45:21.069Z,15
2016-09-20T05:46:21.030Z,15
2016-09-20T05:47:21.030Z,20
2016-09-20T05:48:21.005Z,20
2016-09-20T05:49:21.198Z,20
2016-09-20T05:50:21.036Z,20
2016-09-20T05:51:21.034Z,25
2016-09-20T05:52:21.023Z,25
2016-09-20T05:53:21.018Z,25
2016-09-20T05:54:21.153Z,25
2016-09-20T05:55:21.133Z,25
2016-09-20T05:56:21.613Z,25
2016-09-20T05:57:21.102Z,25
2016-09-20T05:58:21.268Z,25
2016-09-20T05:59:21.069Z,25
2016-09-20T06:00:20.991Z,25
2016-09-20T06:01:21.027Z,25
2016-09-20T06:02:21.103Z,25
2016-09-20T06:03:21.055Z,25
2016-09-20T06:04:21.027Z,25
2016-09-20T06:05:20.999Z,30
2016-09-20T06:06:21.118Z,30
2016-09-20T06:07:21.087Z,30
2016-09-20T06:08:21.091Z,30
2016-09-20T06:09:21.094Z,30
2016-09-20T06:10:21.070Z,35
2016-09-20T06:11:21.040Z,35
2016-09-20T06:12:21.061Z,35
2016-09-20T06:13:21.048Z,35
2016-09-20T06:14:21.072Z,40
2016-09-20T06:15:21.081Z,40
2016-09-20T06:16:21.066Z,40
2016-09-20T06:17:21.072Z,40
2016-09-20T06:18:21.034Z,40
2016-09-20T06:19:21.053Z,35
2016-09-20T06:20:21.061Z,35
2016-09-20T06:21:21.041Z,35
2016-09-20T06:22:21.075Z,35
2016-09-20T06:23:21.066Z,35
2016-09-20T06:24:21.043Z,35
2016-09-20T06:25:21.074Z,35
2016-09-20T06:26:21.080Z,35
2016-09-20T06:27:21.085Z,35
2016-09-20T06:28:21.108Z,35
2016-09-20T06:29:21.599Z,35
2016-09-20T06:30:21.049Z,35
2016-09-20T06:31:21.085Z,35
2016-09-20T06:32:21.064Z,35
2016-09-20T06:33:21.075Z,35
2016-09-20T06:34:21.058Z,35
2016-09-20T06:35:21.009Z,35
2016-09-20T06:36:21.103Z,35
2016-09-20T06:37:21.080Z,35
2016-09-20T06:38:21.079Z,35
2016-09-20T06:39:21.055Z,35
2016-09-20T06:40:21.114Z,35
2016-09-20T06:41:21.112Z,30
2016-09-20T06:42:21.159Z,30
2016-09-20T06:43:21.202Z,30
2016-09-20T06:44:21.184Z,30
2016-09-20T06:45:21.075Z,35
2016-09-20T06:46:21.112Z,35
2016-09-20T06:47:21.157Z,35
2016-09-20T06:48:21.099Z,35
2016-09-20T06:49:21.192Z,35
2016-09-20T06:50:21.150Z,35
2016-09-20T06:51:21.147Z,35
2016-09-20T06:52:21.124Z,40
2016-09-20T06:53:21.180Z,40
2016-09-20T06:54:21.175Z,40
2016-09-20T06:55:21.216Z,40
2016-09-20T06:56:21.204Z,40
2016-09-20T06:57:21.152Z,40
2016-09-20T06:58:21.116Z,45
2016-09-20T06:59:21.140Z,45
2016-09-20T07:00:21.085Z,45
2016-09-20T07:01:21.192Z,45
2016-09-20T07:02:21.090Z,45
2016-09-20T07:03:21.135Z,50
2016-09-20T07:04:21.085Z,50
2016-09-20T07:05:21.085Z,50
2016-09-20T07:06:21.129Z,50
2016-09-20T07:07:21.107Z,50
2016-09-20T07:08:23.994Z,50
2016-09-20T07:09:21.128Z,55
2016-09-20T07:10:21.121Z,55
2016-09-20T07:11:21.845Z,55
2016-09-20T07:12:21.198Z,55
2016-09-20T07:13:21.128Z,55
2016-09-20T07:14:21.134Z,60
2016-09-20T07:15:21.140Z,60
2016-09-20T07:16:21.371Z,60
2016-09-20T07:17:21.170Z,65
2016-09-20T07:18:21.176Z,65
2016-09-20T07:19:21.095Z,65
2016-09-20T07:20:21.118Z,70
2016-09-20T07:21:21.115Z,70
2016-09-20T07:22:21.199Z,80
2016-09-20T07:23:21.166Z,75
2016-09-20T07:24:21.159Z,75
2016-09-20T07:25:21.120Z,75
2016-09-20T07:26:21.163Z,75
2016-09-20T07:27:21.206Z,75
2016-09-20T07:28:21.360Z,75
2016-09-20T07:29:21.101Z,75
2016-09-20T07:30:21.111Z,75
2016-09-20T07:31:21.133Z,80
2016-09-20T07:32:21.149Z,80
2016-09-20T07:33:21.156Z,80
2016-09-20T07:34:21.134Z,85
2016-09-20T07:35:21.117Z,85
2016-09-20T07:36:21.194Z,85
2016-09-20T07:37:21.159Z,85
2016-09-20T07:38:21.101Z,85
2016-09-20T07:39:21.179Z,90
2016-09-20T07:40:21.179Z,90
2016-09-20T07:41:21.142Z,90
2016-09-20T07:42:21.163Z,95
2016-09-20T07:43:21.151Z,95
2016-09-20T07:44:21.129Z,100
2016-09-20T07:45:21.138Z,100
2016-09-20T07:46:21.186Z,100
2016-09-20T07:47:21.148Z,100
2016-09-20T07:48:21.174Z,100
2016-09-20T07:49:21.146Z,100
2016-09-20T07:50:21.154Z,105
2016-09-20T07:51:21.280Z,110
2016-09-20T07:52:21.197Z,110
2016-09-20T07:53:21.201Z,115
2016-09-20T07:54:21.191Z,115
2016-09-20T07:55:21.694Z,120
2016-09-20T07:56:21.298Z,120
2016-09-20T07:57:21.184Z,125
2016-09-20T07:58:21.244Z,125
2016-09-20T07:59:21.161Z,130
2016-09-20T08:00:21.177Z,130
2016-09-20T08:01:21.181Z,135
2016-09-20T08:02:21.153Z,140
2016-09-20T08:03:21.214Z,140
2016-09-20T08:04:21.510Z,145
2016-09-20T08:05:21.517Z,145
2016-09-20T08:06:21.612Z,150
2016-09-20T08:07:21.498Z,150
2016-09-20T08:08:21.651Z,150
2016-09-20T08:09:22.015Z,155
2016-09-20T08:10:21.180Z,155
2016-09-20T08:11:21.888Z,155
2016-09-20T08:12:21.213Z,155
2016-09-20T08:13:21.675Z,150
2016-09-20T08:14:21.362Z,150
2016-09-20T08:15:21.676Z,150
2016-09-20T08:16:21.159Z,150
2016-09-20T08:17:21.761Z,150
2016-09-20T08:18:21.213Z,155
2016-09-20T08:19:21.167Z,160
2016-09-20T08:20:21.169Z,165
2016-09-20T08:21:21.168Z,165
2016-09-20T08:22:21.152Z,175
2016-09-20T08:23:21.186Z,175
2016-09-20T08:24:21.165Z,180
2016-09-20T08:25:21.247Z,185
2016-09-20T08:26:21.180Z,190
2016-09-20T08:27:21.161Z,195
2016-09-20T08:28:21.160Z,200
2016-09-20T08:29:21.167Z,200
2016-09-20T08:30:21.197Z,200
2016-09-20T08:31:21.180Z,200
2016-09-20T08:32:21.216Z,205
2016-09-20T08:33:21.177Z,205
2016-09-20T08:34:21.501Z,205
2016-09-20T08:35:21.197Z,210
2016-09-20T08:36:21.180Z,210
2016-09-20T08:37:21.148Z,215
2016-09-20T08:38:21.197Z,220
2016-09-20T08:39:21.193Z,220
2016-09-20T08:40:21.164Z,225
2016-09-20T08:41:21.171Z,230
2016-09-20T08:42:21.187Z,230
2016-09-20T08:43:21.197Z,230
2016-09-20T08:44:21.216Z,230
2016-09-20T08:45:21.200Z,230
2016-09-20T08:46:21.172Z,235
2016-09-20T08:47:21.181Z,235
2016-09-20T08:48:21.160Z,245
2016-09-20T08:49:21.192Z,240
2016-09-20T08:50:21.177Z,245
2016-09-20T08:51:21.215Z,245
2016-09-20T08:52:21.190Z,245
2016-09-20T08:53:21.194Z,245
2016-09-20T08:54:21.249Z,240
2016-09-20T08:55:21.224Z,240
2016-09-20T08:56:21.203Z,240
2016-09-20T08:57:21.239Z,240
2016-09-20T08:58:21.213Z,245
2016-09-20T08:59:21.222Z,245
2016-09-20T09:00:21.186Z,245
2016-09-20T09:01:21.281Z,250
2016-09-20T09:02:21.224Z,250
2016-09-20T09:03:21.192Z,255
2016-09-20T09:04:21.241Z,255
2016-09-20T09:05:21.232Z,260
2016-09-20T09:06:21.196Z,260
2016-09-20T09:07:21.225Z,265
2016-09-20T09:08:21.218Z,265
2016-09-20T09:09:21.253Z,270
2016-09-20T09:10:21.222Z,270
2016-09-20T09:11:21.200Z,270
2016-09-20T09:12:21.253Z,275
2016-09-20T09:13:21.245Z,275
2016-09-20T09:14:21.225Z,280
2016-09-20T09:15:21.307Z,280
2016-09-20T09:16:21.238Z,285
2016-09-20T09:17:21.218Z,285
2016-09-20T09:18:21.238Z,290
2016-09-20T09:19:21.202Z,290
2016-09-20T09:20:21.239Z,290
2016-09-20T09:21:21.193Z,290
2016-09-20T09:22:21.179Z,295
2016-09-20T09:23:21.220Z,300
2016-09-20T09:24:21.197Z,300
2016-09-20T09:25:21.190Z,305
2016-09-20T09:26:21.274Z,305
2016-09-20T09:27:21.247Z,305
2016-09-20T09:28:21.209Z,305
2016-09-20T09:29:21.405Z,305
2016-09-20T09:30:21.250Z,305
2016-09-20T09:31:21.208Z,310
2016-09-20T09:32:21.241Z,310
2016-09-20T09:33:21.240Z,310
2016-09-20T09:34:21.231Z,315
2016-09-20T09:35:21.228Z,315
2016-09-20T09:36:21.232Z,320
2016-09-20T09:37:21.223Z,320
2016-09-20T09:38:21.240Z,320
2016-09-20T09:39:21.899Z,325
2016-09-20T09:40:21.200Z,325
2016-09-20T09:41:21.222Z,325
2016-09-20T09:42:21.231Z,330
2016-09-20T09:43:21.220Z,330
2016-09-20T09:44:21.224Z,330
2016-09-20T09:45:21.288Z,335
2016-09-20T09:46:21.257Z,335
2016-09-20T09:47:21.262Z,335
2016-09-20T09:48:21.289Z,335
2016-09-20T09:49:21.254Z,335
2016-09-20T09:50:21.280Z,335
2016-09-20T09:51:21.254Z,340
2016-09-20T09:52:21.479Z,340
2016-09-20T09:53:21.292Z,340
2016-09-20T09:54:21.259Z,340
2016-09-20T09:55:21.275Z,345
2016-09-20T09:56:21.254Z,345
2016-09-20T09:57:21.252Z,345
2016-09-20T09:58:21.220Z,345
2016-09-20T09:59:21.248Z,345
2016-09-20T10:00:21.275Z,345
2016-09-20T10:01:21.227Z,345
2016-09-20T10:02:21.298Z,345
2016-09-20T10:03:21.248Z,345
2016-09-20T10:04:21.271Z,345
2016-09-20T10:05:21.235Z,345
2016-09-20T10:06:21.297Z,345
2016-09-20T10:07:21.266Z,345
2016-09-20T10:08:21.228Z,345
2016-09-20T10:09:21.272Z,345
2016-09-20T10:10:21.285Z,350
2016-09-20T10:11:21.291Z,350
2016-09-20T10:12:21.310Z,350
2016-09-20T10:13:21.304Z,350
2016-09-20T10:14:21.299Z,355
2016-09-20T10:15:21.269Z,355
2016-09-20T10:16:21.280Z,360
2016-09-20T10:17:21.274Z,360
2016-09-20T10:18:21.265Z,355
2016-09-20T10:19:21.271Z,355
2016-09-20T10:20:21.244Z,355
2016-09-20T10:21:21.280Z,355
2016-09-20T10:22:21.287Z,355
2016-09-20T10:23:21.295Z,355
2016-09-20T10:24:21.283Z,350
2016-09-20T10:25:21.349Z,350
2016-09-20T10:26:21.299Z,345
2016-09-20T10:27:21.314Z,345
2016-09-20T10:28:21.308Z,340
2016-09-20T10:29:21.306Z,335
2016-09-20T10:30:21.295Z,340
2016-09-20T10:31:21.304Z,350
2016-09-20T10:32:21.308Z,355
2016-09-20T10:33:21.343Z,360
2016-09-20T10:34:21.353Z,360
2016-09-20T10:35:21.306Z,365
2016-09-20T10:36:21.299Z,365
2016-09-20T10:37:21.641Z,370
2016-09-20T10:38:21.288Z,370
2016-09-20T10:39:21.286Z,365
2016-09-20T10:40:21.310Z,360
2016-09-20T10:41:21.327Z,355
2016-09-20T10:42:21.378Z,350
2016-09-20T10:43:21.317Z,350
2016-09-20T10:44:21.337Z,350
2016-09-20T10:45:21.308Z,355
2016-09-20T10:46:21.300Z,355
2016-09-20T10:47:21.329Z,355
2016-09-20T10:48:21.288Z,350
2016-09-20T10:49:21.305Z,340
2016-09-20T10:50:21.320Z,335
2016-09-20T10:51:21.320Z,330
2016-09-20T10:52:21.331Z,325
2016-09-20T10:53:21.344Z,330
2016-09-20T10:54:21.360Z,330
2016-09-20T10:55:21.335Z,330
2016-09-20T10:56:21.304Z,325
2016-09-20T10:57:21.295Z,320
2016-09-20T10:58:21.319Z,310
2016-09-20T10:59:21.333Z,300
2016-09-20T11:00:21.334Z,300
2016-09-20T11:01:21.337Z,300
2016-09-20T11:02:21.352Z,305
2016-09-20T11:03:21.363Z,305
2016-09-20T11:04:21.355Z,310
2016-09-20T11:05:21.374Z,310
2016-09-20T11:06:21.324Z,305
2016-09-20T11:07:21.362Z,305
2016-09-20T11:08:21.381Z,305
2016-09-20T11:09:21.345Z,315
2016-09-20T11:10:21.703Z,320
2016-09-20T11:11:21.429Z,325
2016-09-20T11:12:21.420Z,325
2016-09-20T11:13:21.357Z,320
2016-09-20T11:14:21.378Z,320
2016-09-20T11:15:21.376Z,315
2016-09-20T11:16:21.346Z,310
2016-09-20T11:17:21.404Z,305
2016-09-20T11:18:21.343Z,305
2016-09-20T11:19:21.372Z,300
2016-09-20T11:20:21.368Z,295
2016-09-20T11:21:21.400Z,290
2016-09-20T11:22:21.391Z,290
2016-09-20T11:23:21.397Z,285
2016-09-20T11:24:21.349Z,280
2016-09-20T11:25:21.342Z,275
2016-09-20T11:26:21.350Z,270
2016-09-20T11:27:21.358Z,265
2016-09-20T11:28:21.347Z,255
2016-09-20T11:29:21.349Z,250
2016-09-20T11:30:21.418Z,240
2016-09-20T11:31:21.359Z,235
2016-09-20T11:32:21.368Z,225
2016-09-20T11:33:21.376Z,220
2016-09-20T11:34:21.663Z,215
2016-09-20T11:35:21.419Z,215
2016-09-20T11:36:21.359Z,215
2016-09-20T11:37:21.338Z,215
2016-09-20T11:38:21.383Z,215
2016-09-20T11:39:21.379Z,215
2016-09-20T11:40:21.357Z,210
2016-09-20T11:41:21.369Z,215
2016-09-20T11:42:21.399Z,215
2016-09-20T11:43:21.371Z,220
2016-09-20T11:44:21.382Z,220
2016-09-20T11:45:21.373Z,220
2016-09-20T11:46:21.352Z,225
2016-09-20T11:47:21.371Z,225
2016-09-20T11:48:21.397Z,230
2016-09-20T11:49:21.395Z,240
2016-09-20T11:50:21.397Z,245
2016-09-20T11:51:21.406Z,255
2016-09-20T11:52:21.398Z,255
2016-09-20T11:53:21.418Z,250
2016-09-20T11:54:21.448Z,250
2016-09-20T11:55:21.393Z,250
2016-09-20T11:56:21.418Z,250
2016-09-20T11:57:21.397Z,250
2016-09-20T11:58:21.401Z,260
2016-09-20T11:59:21.385Z,270
2016-09-20T12:00:21.418Z,275
2016-09-20T12:01:21.406Z,280
2016-09-20T12:02:21.384Z,280
2016-09-20T12:03:21.403Z,275
2016-09-20T12:04:21.455Z,275
2016-09-20T12:05:21.447Z,280
2016-09-20T12:06:21.466Z,285
2016-09-20T12:07:21.417Z,290
2016-09-20T12:08:21.424Z,290
2016-09-20T12:09:21.410Z,295
2016-09-20T12:10:21.485Z,300
2016-09-20T12:11:21.446Z,305
2016-09-20T12:12:21.423Z,310
2016-09-20T12:13:21.400Z,315
2016-09-20T12:14:21.417Z,315
2016-09-20T12:15:21.414Z,315
2016-09-20T12:16:21.446Z,320
2016-09-20T12:17:21.461Z,320
2016-09-20T12:18:21.434Z,320
2016-09-20T12:19:21.492Z,320
2016-09-20T12:20:21.414Z,320
2016-09-20T12:21:21.447Z,320
2016-09-20T12:22:21.408Z,320
2016-09-20T12:23:21.427Z,320
2016-09-20T12:24:21.468Z,325
2016-09-20T12:25:21.418Z,325
2016-09-20T12:26:21.467Z,325
2016-09-20T12:27:21.444Z,325
2016-09-20T12:28:21.448Z,325
2016-09-20T12:29:21.414Z,320
2016-09-20T12:30:21.418Z,320
2016-09-20T12:31:21.433Z,320
2016-09-20T12:32:21.439Z,320
2016-09-20T12:33:21.403Z,320
2016-09-20T12:34:21.389Z,320
2016-09-20T12:35:21.449Z,320
2016-09-20T12:36:21.440Z,320
2016-09-20T12:37:21.461Z,320
2016-09-20T12:38:21.497Z,320
2016-09-20T12:39:21.406Z,320
2016-09-20T12:40:21.448Z,320
2016-09-20T12:41:21.463Z,320
2016-09-20T12:42:21.423Z,320
2016-09-20T12:43:21.458Z,320
2016-09-20T12:44:21.478Z,320
2016-09-20T12:45:21.445Z,315
2016-09-20T12:46:21.432Z,315
2016-09-20T12:47:21.442Z,315
2016-09-20T12:48:21.457Z,315
2016-09-20T12:49:21.497Z,315
2016-09-20T12:50:21.445Z,315
2016-09-20T12:51:21.465Z,310
2016-09-20T12:52:21.502Z,310
2016-09-20T12:53:21.495Z,305
2016-09-20T12:54:21.431Z,305
2016-09-20T12:55:21.464Z,305
2016-09-20T12:56:21.472Z,305
2016-09-20T12:57:21.448Z,305
2016-09-20T12:58:21.444Z,305
2016-09-20T12:59:29.349Z,300
2016-09-20T13:00:21.445Z,310
2016-09-20T13:01:21.473Z,305
2016-09-20T13:02:21.475Z,295
2016-09-20T13:03:21.486Z,290
2016-09-20T13:04:21.453Z,285
2016-09-20T13:05:21.443Z,280
2016-09-20T13:06:21.481Z,280
2016-09-20T13:07:21.456Z,275
2016-09-20T13:08:21.468Z,275
2016-09-20T13:09:21.721Z,270
2016-09-20T13:10:21.477Z,270
2016-09-20T13:11:21.451Z,270
2016-09-20T13:12:21.480Z,265
2016-09-20T13:13:21.501Z,265
2016-09-20T13:14:21.497Z,265
2016-09-20T13:15:21.508Z,265
2016-09-20T13:16:21.489Z,270
2016-09-20T13:17:21.499Z,270
2016-09-20T13:18:21.499Z,275
2016-09-20T13:19:21.476Z,275
2016-09-20T13:20:21.527Z,275
2016-09-20T13:21:21.505Z,275
2016-09-20T13:22:21.502Z,275
2016-09-20T13:23:21.527Z,275
2016-09-20T13:24:21.502Z,275
2016-09-20T13:25:21.529Z,275
2016-09-20T13:26:21.541Z,275
2016-09-20T13:27:21.519Z,280
2016-09-20T13:28:21.521Z,275
2016-09-20T13:29:21.576Z,275
2016-09-20T13:30:21.491Z,280
2016-09-20T13:31:21.512Z,270
2016-09-20T13:32:21.471Z,270
2016-09-20T13:33:21.523Z,275
2016-09-20T13:34:21.534Z,275
2016-09-20T13:35:21.492Z,275
2016-09-20T13:36:21.499Z,275
2016-09-20T13:37:21.484Z,275
2016-09-20T13:38:21.489Z,275
2016-09-20T13:39:21.523Z,275
2016-09-20T13:40:21.541Z,275
2016-09-20T13:41:21.492Z,275
2016-09-20T13:42:21.483Z,275
2016-09-20T13:43:21.526Z,270
2016-09-20T13:44:21.559Z,270
2016-09-20T13:45:21.526Z,270
2016-09-20T13:46:21.535Z,265
2016-09-20T13:47:21.527Z,265
2016-09-20T13:48:21.559Z,260
2016-09-20T13:49:21.525Z,260
2016-09-20T13:50:21.511Z,255
2016-09-20T13:51:21.546Z,255
2016-09-20T13:52:21.502Z,255
2016-09-20T13:53:21.511Z,250
2016-09-20T13:54:21.547Z,250
2016-09-20T13:55:21.512Z,250
2016-09-20T13:56:21.511Z,250
2016-09-20T13:57:21.521Z,250
2016-09-20T13:58:21.542Z,250
2016-09-20T13:59:21.574Z,245
2016-09-20T14:00:21.544Z,250
2016-09-20T14:01:21.541Z,245
2016-09-20T14:02:21.514Z,245
2016-09-20T14:03:21.506Z,245
2016-09-20T14:04:21.552Z,245
2016-09-20T14:05:21.494Z,245
2016-09-20T14:06:21.541Z,245
2016-09-20T14:07:21.569Z,245
2016-09-20T14:08:21.528Z,245
2016-09-20T14:09:21.563Z,245
2016-09-20T14:10:21.528Z,245
2016-09-20T14:11:21.537Z,240
2016-09-20T14:12:21.563Z,240
2016-09-20T14:13:21.535Z,240